Terminal Aerodrome Forecast
Issued by NWS

Home | Current Version | Previous Version | Text Only | Print | Product List | Glossary On
Versions: 1 2 3 4 5 6 7 8 9 10 11 12 13
229
FTUS42 KMLB 260538
TAFLEE
TAF
KLEE 260538Z 2606/2706 02006KT P6SM SCT050
     FM260800 15003KT P6SM SKC
     FM261400 16005KT P6SM SCT035
     FM262000 17006KT P6SM VCTS SCT040CB BKN080
     FM270000 14003KT P6SM SCT100=

USA.gov is the U.S. government's official web portal to all federal, state and local government web resources and services.